sensor_id;sensor_type;location;lat;lon;timestamp;temperature;humidity
70726;DHT22;58304;53.104;6.022;2023-03-16T00:02:11;3.40;99.90
70726;DHT22;58304;53.104;6.022;2023-03-16T00:04:37;3.50;99.90
70726;DHT22;58304;53.104;6.022;2023-03-16T00:07:22;3.40;99.90
70726;DHT22;58304;53.104;6.022;2023-03-16T00:09:48;3.40;99.90
70726;DHT22;58304;53.104;6.022;2023-03-16T00:12:15;3.40;99.90
70726;DHT22;58304;53.104;6.022;2023-03-16T00:14:43;3.40;99.90
70726;DHT22;58304;53.104;6.022;2023-03-16T00:17:10;3.40;99.90
70726;DHT22;58304;53.104;6.022;2023-03-16T00:19:49;3.40;99.90
70726;DHT22;58304;53.104;6.022;2023-03-16T00:22:24;3.50;99.90
70726;DHT22;58304;53.104;6.022;2023-03-16T00:24:50;3.50;99.90
70726;DHT22;58304;53.104;6.022;2023-03-16T00:27:17;3.60;99.90
70726;DHT22;58304;53.104;6.022;2023-03-16T00:29:47;3.50;99.90
70726;DHT22;58304;53.104;6.022;2023-03-16T00:32:18;3.50;99.90
70726;DHT22;58304;53.104;6.022;2023-03-16T00:34:45;3.60;99.90
70726;DHT22;58304;53.104;6.022;2023-03-16T00:37:13;3.60;99.90
70726;DHT22;58304;53.104;6.022;2023-03-16T00:39:41;3.60;99.90
70726;DHT22;58304;53.104;6.022;2023-03-16T00:42:08;3.60;99.90
70726;DHT22;58304;53.104;6.022;2023-03-16T00:44:35;3.60;99.90
70726;DHT22;58304;53.104;6.022;2023-03-16T00:47:03;3.60;99.90
70726;DHT22;58304;53.104;6.022;2023-03-16T00:49:29;3.60;99.90
70726;DHT22;58304;53.104;6.022;2023-03-16T00:52:03;3.60;99.90
70726;DHT22;58304;53.104;6.022;2023-03-16T00:54:30;3.60;99.90
70726;DHT22;58304;53.104;6.022;2023-03-16T00:57:00;3.60;99.90
70726;DHT22;58304;53.104;6.022;2023-03-16T00:59:26;3.60;99.90
70726;DHT22;58304;53.104;6.022;2023-03-16T01:01:52;3.60;99.90
70726;DHT22;58304;53.104;6.022;2023-03-16T01:04:18;3.60;99.90
70726;DHT22;58304;53.104;6.022;2023-03-16T01:06:45;3.50;99.90
70726;DHT22;58304;53.104;6.022;2023-03-16T01:09:12;3.50;99.90
70726;DHT22;58304;53.104;6.022;2023-03-16T01:11:39;3.40;99.90
70726;DHT22;58304;53.104;6.022;2023-03-16T01:14:08;3.40;99.90
70726;DHT22;58304;53.104;6.022;2023-03-16T01:16:34;3.40;99.90
70726;DHT22;58304;53.104;6.022;2023-03-16T01:18:59;3.40;99.90
70726;DHT22;58304;53.104;6.022;2023-03-16T01:21:26;3.50;99.90
70726;DHT22;58304;53.104;6.022;2023-03-16T01:23:52;3.40;99.90
70726;DHT22;58304;53.104;6.022;2023-03-16T01:26:19;3.30;99.90
70726;DHT22;58304;53.104;6.022;2023-03-16T01:28:45;3.40;99.90
70726;DHT22;58304;53.104;6.022;2023-03-16T01:31:12;3.40;99.90
70726;DHT22;58304;53.104;6.022;2023-03-16T01:33:39;3.30;99.90
70726;DHT22;58304;53.104;6.022;2023-03-16T01:36:09;3.30;99.90
70726;DHT22;58304;53.104;6.022;2023-03-16T01:38:35;3.20;99.90
70726;DHT22;58304;53.104;6.022;2023-03-16T01:41:02;3.30;99.90
70726;DHT22;58304;53.104;6.022;2023-03-16T01:43:29;3.30;99.90
70726;DHT22;58304;53.104;6.022;2023-03-16T01:48:46;3.40;99.90
70726;DHT22;58304;53.104;6.022;2023-03-16T01:54:00;3.50;99.90
70726;DHT22;58304;53.104;6.022;2023-03-16T01:56:42;3.50;99.90
70726;DHT22;58304;53.104;6.022;2023-03-16T01:59:17;3.60;99.90
70726;DHT22;58304;53.104;6.022;2023-03-16T02:01:45;3.70;99.90
70726;DHT22;58304;53.104;6.022;2023-03-16T02:07:06;3.80;99.90
70726;DHT22;58304;53.104;6.022;2023-03-16T02:09:33;3.80;99.90
70726;DHT22;58304;53.104;6.022;2023-03-16T02:12:00;3.80;99.90
70726;DHT22;58304;53.104;6.022;2023-03-16T02:14:26;3.90;99.90
70726;DHT22;58304;53.104;6.022;2023-03-16T02:16:52;4.00;99.90
70726;DHT22;58304;53.104;6.022;2023-03-16T02:19:41;3.90;99.90
70726;DHT22;58304;53.104;6.022;2023-03-16T02:22:09;4.00;99.90
70726;DHT22;58304;53.104;6.022;2023-03-16T02:24:36;4.00;99.90
70726;DHT22;58304;53.104;6.022;2023-03-16T02:27:11;4.00;99.90
70726;DHT22;58304;53.104;6.022;2023-03-16T02:29:56;4.10;99.90
70726;DHT22;58304;53.104;6.022;2023-03-16T02:32:27;4.10;99.90
70726;DHT22;58304;53.104;6.022;2023-03-16T02:34:56;4.10;99.90
70726;DHT22;58304;53.104;6.022;2023-03-16T02:37:23;4.10;99.90
70726;DHT22;58304;53.104;6.022;2023-03-16T02:39:48;4.10;99.90
70726;DHT22;58304;53.104;6.022;2023-03-16T02:42:18;4.10;99.90
70726;DHT22;58304;53.104;6.022;2023-03-16T02:44:49;4.10;99.90
70726;DHT22;58304;53.104;6.022;2023-03-16T02:47:42;4.20;99.90
70726;DHT22;58304;53.104;6.022;2023-03-16T02:50:10;4.20;99.90
70726;DHT22;58304;53.104;6.022;2023-03-16T02:52:37;4.20;99.90
70726;DHT22;58304;53.104;6.022;2023-03-16T02:55:05;4.20;99.90
70726;DHT22;58304;53.104;6.022;2023-03-16T02:57:31;4.20;99.90
70726;DHT22;58304;53.104;6.022;2023-03-16T02:59:57;4.30;99.90
70726;DHT22;58304;53.104;6.022;2023-03-16T03:02:23;4.20;99.90
70726;DHT22;58304;53.104;6.022;2023-03-16T03:04:48;4.20;99.90
70726;DHT22;58304;53.104;6.022;2023-03-16T03:07:15;4.20;99.90
70726;DHT22;58304;53.104;6.022;2023-03-16T03:09:40;4.20;99.90
70726;DHT22;58304;53.104;6.022;2023-03-16T03:12:11;4.20;99.90
70726;DHT22;58304;53.104;6.022;2023-03-16T03:14:38;4.20;99.90
70726;DHT22;58304;53.104;6.022;2023-03-16T03:17:08;4.30;99.90
70726;DHT22;58304;53.104;6.022;2023-03-16T03:19:34;4.30;99.90
70726;DHT22;58304;53.104;6.022;2023-03-16T03:22:04;4.30;99.90
70726;DHT22;58304;53.104;6.022;2023-03-16T03:24:32;4.30;99.90
70726;DHT22;58304;53.104;6.022;2023-03-16T03:26:57;4.30;99.90
70726;DHT22;58304;53.104;6.022;2023-03-16T03:29:26;4.30;99.90
70726;DHT22;58304;53.104;6.022;2023-03-16T03:32:00;4.30;99.90
70726;DHT22;58304;53.104;6.022;2023-03-16T03:34:27;4.30;99.90
70726;DHT22;58304;53.104;6.022;2023-03-16T03:36:52;4.30;99.90
70726;DHT22;58304;53.104;6.022;2023-03-16T03:39:18;4.30;99.90
70726;DHT22;58304;53.104;6.022;2023-03-16T03:41:44;4.30;99.90
70726;DHT22;58304;53.104;6.022;2023-03-16T03:44:11;4.30;99.90
70726;DHT22;58304;53.104;6.022;2023-03-16T03:46:37;4.30;99.90
70726;DHT22;58304;53.104;6.022;2023-03-16T03:49:04;4.30;99.90
70726;DHT22;58304;53.104;6.022;2023-03-16T03:51:31;4.30;99.90
70726;DHT22;58304;53.104;6.022;2023-03-16T03:53:57;4.30;99.90
70726;DHT22;58304;53.104;6.022;2023-03-16T03:56:23;4.30;99.90
70726;DHT22;58304;53.104;6.022;2023-03-16T03:58:49;4.40;99.90
70726;DHT22;58304;53.104;6.022;2023-03-16T04:01:15;4.30;99.90
70726;DHT22;58304;53.104;6.022;2023-03-16T04:03:42;4.40;99.90
70726;DHT22;58304;53.104;6.022;2023-03-16T04:06:08;4.40;99.90
70726;DHT22;58304;53.104;6.022;2023-03-16T04:08:34;4.40;99.90
70726;DHT22;58304;53.104;6.022;2023-03-16T04:11:00;4.30;99.90
70726;DHT22;58304;53.104;6.022;2023-03-16T04:13:26;4.30;99.90
70726;DHT22;58304;53.104;6.022;2023-03-16T04:15:56;4.30;99.90
70726;DHT22;58304;53.104;6.022;2023-03-16T04:18:22;4.30;99.90
70726;DHT22;58304;53.104;6.022;2023-03-16T04:20:48;4.30;99.90
70726;DHT22;58304;53.104;6.022;2023-03-16T04:23:14;4.40;99.90
70726;DHT22;58304;53.104;6.022;2023-03-16T04:25:41;4.30;99.90
70726;DHT22;58304;53.104;6.022;2023-03-16T04:28:07;4.20;99.90
70726;DHT22;58304;53.104;6.022;2023-03-16T04:30:32;4.30;99.90
70726;DHT22;58304;53.104;6.022;2023-03-16T04:32:59;4.40;99.90
70726;DHT22;58304;53.104;6.022;2023-03-16T04:35:25;4.20;99.90
70726;DHT22;58304;53.104;6.022;2023-03-16T04:37:50;4.20;99.90
70726;DHT22;58304;53.104;6.022;2023-03-16T04:40:16;4.20;99.90
70726;DHT22;58304;53.104;6.022;2023-03-16T04:42:45;4.20;99.90
70726;DHT22;58304;53.104;6.022;2023-03-16T04:45:11;4.20;99.90
70726;DHT22;58304;53.104;6.022;2023-03-16T04:47:39;4.20;99.90
70726;DHT22;58304;53.104;6.022;2023-03-16T04:50:06;4.30;99.90
70726;DHT22;58304;53.104;6.022;2023-03-16T04:52:32;4.20;99.90
70726;DHT22;58304;53.104;6.022;2023-03-16T04:54:57;4.10;99.90
70726;DHT22;58304;53.104;6.022;2023-03-16T04:57:23;4.20;99.90
70726;DHT22;58304;53.104;6.022;2023-03-16T04:59:49;4.20;99.90
70726;DHT22;58304;53.104;6.022;2023-03-16T05:02:15;4.20;99.90
70726;DHT22;58304;53.104;6.022;2023-03-16T05:04:42;4.20;99.90
70726;DHT22;58304;53.104;6.022;2023-03-16T05:07:07;4.10;99.90
70726;DHT22;58304;53.104;6.022;2023-03-16T05:09:33;4.30;99.90
70726;DHT22;58304;53.104;6.022;2023-03-16T05:11:59;4.20;99.90
70726;DHT22;58304;53.104;6.022;2023-03-16T05:14:25;4.20;99.90
70726;DHT22;58304;53.104;6.022;2023-03-16T05:16:50;4.20;99.90
70726;DHT22;58304;53.104;6.022;2023-03-16T05:19:16;4.20;99.90
70726;DHT22;58304;53.104;6.022;2023-03-16T05:21:42;4.20;99.90
70726;DHT22;58304;53.104;6.022;2023-03-16T05:24:08;4.20;99.90
70726;DHT22;58304;53.104;6.022;2023-03-16T05:26:35;4.10;99.90
70726;DHT22;58304;53.104;6.022;2023-03-16T05:29:04;4.20;99.90
70726;DHT22;58304;53.104;6.022;2023-03-16T05:31:30;4.10;99.90
70726;DHT22;58304;53.104;6.022;2023-03-16T05:33:57;4.10;99.90
70726;DHT22;58304;53.104;6.022;2023-03-16T05:36:22;4.10;99.90
70726;DHT22;58304;53.104;6.022;2023-03-16T05:38:49;4.10;99.90
70726;DHT22;58304;53.104;6.022;2023-03-16T05:41:16;4.00;99.90
70726;DHT22;58304;53.104;6.022;2023-03-16T05:43:43;4.00;99.90
70726;DHT22;58304;53.104;6.022;2023-03-16T05:46:09;4.10;99.90
70726;DHT22;58304;53.104;6.022;2023-03-16T05:48:35;4.00;99.90
70726;DHT22;58304;53.104;6.022;2023-03-16T05:51:01;4.00;99.90
70726;DHT22;58304;53.104;6.022;2023-03-16T05:53:31;4.00;99.90
70726;DHT22;58304;53.104;6.022;2023-03-16T05:55:57;4.00;99.90
70726;DHT22;58304;53.104;6.022;2023-03-16T05:58:22;3.90;99.90
70726;DHT22;58304;53.104;6.022;2023-03-16T06:00:48;4.00;99.90
70726;DHT22;58304;53.104;6.022;2023-03-16T06:03:15;4.00;99.90
70726;DHT22;58304;53.104;6.022;2023-03-16T06:05:44;3.90;99.90
70726;DHT22;58304;53.104;6.022;2023-03-16T06:08:09;3.90;99.90
70726;DHT22;58304;53.104;6.022;2023-03-16T06:10:36;4.00;99.90
70726;DHT22;58304;53.104;6.022;2023-03-16T06:13:02;4.00;99.90
70726;DHT22;58304;53.104;6.022;2023-03-16T06:15:27;4.10;99.90
70726;DHT22;58304;53.104;6.022;2023-03-16T06:17:55;4.10;99.90
70726;DHT22;58304;53.104;6.022;2023-03-16T06:20:21;4.00;99.90
70726;DHT22;58304;53.104;6.022;2023-03-16T06:22:46;4.10;99.90
70726;DHT22;58304;53.104;6.022;2023-03-16T06:25:13;4.10;99.90
70726;DHT22;58304;53.104;6.022;2023-03-16T06:27:41;4.00;99.90
70726;DHT22;58304;53.104;6.022;2023-03-16T06:30:08;4.10;99.90
70726;DHT22;58304;53.104;6.022;2023-03-16T06:32:35;4.10;99.90
70726;DHT22;58304;53.104;6.022;2023-03-16T06:35:03;4.10;99.90
70726;DHT22;58304;53.104;6.022;2023-03-16T06:37:29;4.10;99.90
70726;DHT22;58304;53.104;6.022;2023-03-16T06:39:55;4.20;99.90
70726;DHT22;58304;53.104;6.022;2023-03-16T06:42:21;4.30;99.90
70726;DHT22;58304;53.104;6.022;2023-03-16T06:44:46;4.30;99.90
70726;DHT22;58304;53.104;6.022;2023-03-16T06:47:12;4.30;99.90
70726;DHT22;58304;53.104;6.022;2023-03-16T06:49:41;4.40;99.90
70726;DHT22;58304;53.104;6.022;2023-03-16T06:52:06;4.30;99.90
70726;DHT22;58304;53.104;6.022;2023-03-16T06:54:33;4.40;99.90
70726;DHT22;58304;53.104;6.022;2023-03-16T06:57:02;4.30;99.90
70726;DHT22;58304;53.104;6.022;2023-03-16T06:59:28;4.30;99.90
70726;DHT22;58304;53.104;6.022;2023-03-16T07:01:53;4.40;99.90
70726;DHT22;58304;53.104;6.022;2023-03-16T07:04:19;4.40;99.90
70726;DHT22;58304;53.104;6.022;2023-03-16T07:06:45;4.40;99.90
70726;DHT22;58304;53.104;6.022;2023-03-16T07:09:10;4.40;99.90
70726;DHT22;58304;53.104;6.022;2023-03-16T07:11:39;4.40;99.90
70726;DHT22;58304;53.104;6.022;2023-03-16T07:14:06;4.50;99.90
70726;DHT22;58304;53.104;6.022;2023-03-16T07:16:33;4.50;99.90
70726;DHT22;58304;53.104;6.022;2023-03-16T07:18:59;4.60;99.90
70726;DHT22;58304;53.104;6.022;2023-03-16T07:21:27;4.60;99.90
70726;DHT22;58304;53.104;6.022;2023-03-16T07:23:53;4.50;99.90
70726;DHT22;58304;53.104;6.022;2023-03-16T07:26:22;4.70;99.90
70726;DHT22;58304;53.104;6.022;2023-03-16T07:28:50;4.60;99.90
70726;DHT22;58304;53.104;6.022;2023-03-16T07:31:16;4.60;99.90
70726;DHT22;58304;53.104;6.022;2023-03-16T07:33:42;4.80;99.90
70726;DHT22;58304;53.104;6.022;2023-03-16T07:36:08;4.70;99.90
70726;DHT22;58304;53.104;6.022;2023-03-16T07:38:35;4.70;99.90
70726;DHT22;58304;53.104;6.022;2023-03-16T07:41:00;4.70;99.90
70726;DHT22;58304;53.104;6.022;2023-03-16T07:43:26;4.70;99.90
70726;DHT22;58304;53.104;6.022;2023-03-16T07:45:54;4.70;99.90
70726;DHT22;58304;53.104;6.022;2023-03-16T07:48:20;4.80;99.90
70726;DHT22;58304;53.104;6.022;2023-03-16T07:50:47;4.80;99.90
70726;DHT22;58304;53.104;6.022;2023-03-16T07:53:15;4.80;99.90
70726;DHT22;58304;53.104;6.022;2023-03-16T07:55:42;4.80;99.90
70726;DHT22;58304;53.104;6.022;2023-03-16T07:58:09;4.80;99.90
70726;DHT22;58304;53.104;6.022;2023-03-16T08:00:35;4.80;99.90
70726;DHT22;58304;53.104;6.022;2023-03-16T08:03:03;4.80;99.90
70726;DHT22;58304;53.104;6.022;2023-03-16T08:05:29;4.70;99.90
70726;DHT22;58304;53.104;6.022;2023-03-16T08:07:57;4.70;99.90
70726;DHT22;58304;53.104;6.022;2023-03-16T08:10:23;4.80;99.90
70726;DHT22;58304;53.104;6.022;2023-03-16T08:12:50;4.70;99.90
70726;DHT22;58304;53.104;6.022;2023-03-16T08:15:17;4.80;99.90
70726;DHT22;58304;53.104;6.022;2023-03-16T08:17:43;4.80;99.90
70726;DHT22;58304;53.104;6.022;2023-03-16T08:20:10;4.80;99.90
70726;DHT22;58304;53.104;6.022;2023-03-16T08:22:39;4.80;99.90
70726;DHT22;58304;53.104;6.022;2023-03-16T08:25:06;4.80;99.90
70726;DHT22;58304;53.104;6.022;2023-03-16T08:27:37;4.80;99.90
70726;DHT22;58304;53.104;6.022;2023-03-16T08:30:06;4.80;99.90
70726;DHT22;58304;53.104;6.022;2023-03-16T08:32:36;4.80;99.90
70726;DHT22;58304;53.104;6.022;2023-03-16T08:35:24;4.80;99.90
70726;DHT22;58304;53.104;6.022;2023-03-16T08:37:52;4.70;99.90
70726;DHT22;58304;53.104;6.022;2023-03-16T08:40:20;4.70;99.90
70726;DHT22;58304;53.104;6.022;2023-03-16T08:42:47;4.80;99.90
70726;DHT22;58304;53.104;6.022;2023-03-16T08:45:15;4.80;99.90
70726;DHT22;58304;53.104;6.022;2023-03-16T08:47:43;4.70;99.90
70726;DHT22;58304;53.104;6.022;2023-03-16T08:50:10;4.70;99.90
70726;DHT22;58304;53.104;6.022;2023-03-16T08:52:37;4.80;99.90
70726;DHT22;58304;53.104;6.022;2023-03-16T08:55:04;4.80;99.90
70726;DHT22;58304;53.104;6.022;2023-03-16T08:57:34;4.80;99.90
70726;DHT22;58304;53.104;6.022;2023-03-16T09:00:00;4.80;99.90
70726;DHT22;58304;53.104;6.022;2023-03-16T09:02:26;4.90;99.90
70726;DHT22;58304;53.104;6.022;2023-03-16T09:04:53;4.80;99.90
70726;DHT22;58304;53.104;6.022;2023-03-16T09:07:20;4.80;99.90
70726;DHT22;58304;53.104;6.022;2023-03-16T09:09:46;4.90;99.90
70726;DHT22;58304;53.104;6.022;2023-03-16T09:12:13;4.90;99.90
70726;DHT22;58304;53.104;6.022;2023-03-16T09:14:38;5.00;99.90
70726;DHT22;58304;53.104;6.022;2023-03-16T09:17:07;5.10;99.90
70726;DHT22;58304;53.104;6.022;2023-03-16T09:19:33;5.10;99.90
70726;DHT22;58304;53.104;6.022;2023-03-16T09:22:02;5.10;99.90
70726;DHT22;58304;53.104;6.022;2023-03-16T09:24:28;5.20;99.90
70726;DHT22;58304;53.104;6.022;2023-03-16T09:26:56;5.10;99.90
70726;DHT22;58304;53.104;6.022;2023-03-16T09:29:21;5.20;99.90
70726;DHT22;58304;53.104;6.022;2023-03-16T09:31:50;5.30;99.90
70726;DHT22;58304;53.104;6.022;2023-03-16T09:34:15;5.30;99.90
70726;DHT22;58304;53.104;6.022;2023-03-16T09:36:42;5.30;99.90
70726;DHT22;58304;53.104;6.022;2023-03-16T09:39:08;5.30;99.90
70726;DHT22;58304;53.104;6.022;2023-03-16T09:41:58;5.30;99.90
70726;DHT22;58304;53.104;6.022;2023-03-16T09:47:05;5.30;99.90
70726;DHT22;58304;53.104;6.022;2023-03-16T09:49:42;5.30;99.90
70726;DHT22;58304;53.104;6.022;2023-03-16T09:52:34;5.30;99.90
70726;DHT22;58304;53.104;6.022;2023-03-16T09:57:41;5.40;99.90
70726;DHT22;58304;53.104;6.022;2023-03-16T10:00:35;5.50;99.90
70726;DHT22;58304;53.104;6.022;2023-03-16T10:06:28;5.50;99.90
70726;DHT22;58304;53.104;6.022;2023-03-16T10:11:52;5.60;99.90
70726;DHT22;58304;53.104;6.022;2023-03-16T10:17:12;5.50;99.90
70726;DHT22;58304;53.104;6.022;2023-03-16T10:19:56;5.50;99.90
70726;DHT22;58304;53.104;6.022;2023-03-16T10:22:44;5.60;99.90
70726;DHT22;58304;53.104;6.022;2023-03-16T10:28:02;5.70;99.90
70726;DHT22;58304;53.104;6.022;2023-03-16T10:30:33;5.70;99.90
70726;DHT22;58304;53.104;6.022;2023-03-16T10:39:02;5.80;99.90
70726;DHT22;58304;53.104;6.022;2023-03-16T10:41:37;5.90;99.90
70726;DHT22;58304;53.104;6.022;2023-03-16T10:44:26;6.00;99.90
70726;DHT22;58304;53.104;6.022;2023-03-16T10:49:38;6.40;99.90
70726;DHT22;58304;53.104;6.022;2023-03-16T10:55:28;6.60;99.90
70726;DHT22;58304;53.104;6.022;2023-03-16T10:57:55;6.70;99.90
70726;DHT22;58304;53.104;6.022;2023-03-16T11:00:26;6.70;99.90
70726;DHT22;58304;53.104;6.022;2023-03-16T11:02:54;6.80;99.90
70726;DHT22;58304;53.104;6.022;2023-03-16T11:05:32;6.80;99.90
70726;DHT22;58304;53.104;6.022;2023-03-16T11:08:19;6.90;99.90
70726;DHT22;58304;53.104;6.022;2023-03-16T11:10:54;6.90;99.90
70726;DHT22;58304;53.104;6.022;2023-03-16T11:13:23;6.90;99.90
70726;DHT22;58304;53.104;6.022;2023-03-16T11:16:05;7.00;99.90
70726;DHT22;58304;53.104;6.022;2023-03-16T11:18:43;6.90;99.90
70726;DHT22;58304;53.104;6.022;2023-03-16T11:21:18;7.00;99.90
70726;DHT22;58304;53.104;6.022;2023-03-16T11:23:53;7.10;99.90
70726;DHT22;58304;53.104;6.022;2023-03-16T11:26:34;7.30;99.90
70726;DHT22;58304;53.104;6.022;2023-03-16T11:29:26;7.30;99.90
70726;DHT22;58304;53.104;6.022;2023-03-16T11:32:03;7.40;99.90
70726;DHT22;58304;53.104;6.022;2023-03-16T11:34:50;7.50;99.90
70726;DHT22;58304;53.104;6.022;2023-03-16T11:43:02;7.80;99.90
70726;DHT22;58304;53.104;6.022;2023-03-16T11:49:36;8.40;99.90
70726;DHT22;58304;53.104;6.022;2023-03-16T11:52:48;8.50;99.90
70726;DHT22;58304;53.104;6.022;2023-03-16T12:09:28;8.90;99.90
70726;DHT22;58304;53.104;6.022;2023-03-16T12:12:21;9.00;99.90
70726;DHT22;58304;53.104;6.022;2023-03-16T12:18:28;9.10;99.90
70726;DHT22;58304;53.104;6.022;2023-03-16T12:21:30;9.20;99.90
70726;DHT22;58304;53.104;6.022;2023-03-16T12:24:28;9.10;99.90
70726;DHT22;58304;53.104;6.022;2023-03-16T12:27:02;9.00;99.90
70726;DHT22;58304;53.104;6.022;2023-03-16T12:29:55;9.00;99.90
70726;DHT22;58304;53.104;6.022;2023-03-16T12:32:47;9.00;99.90
70726;DHT22;58304;53.104;6.022;2023-03-16T12:38:07;8.80;99.90
70726;DHT22;58304;53.104;6.022;2023-03-16T12:40:58;8.90;99.90
70726;DHT22;58304;53.104;6.022;2023-03-16T12:49:40;8.80;99.90
70726;DHT22;58304;53.104;6.022;2023-03-16T12:52:49;8.80;99.90
70726;DHT22;58304;53.104;6.022;2023-03-16T12:55:23;8.80;99.90
70726;DHT22;58304;53.104;6.022;2023-03-16T12:58:12;8.70;99.90
70726;DHT22;58304;53.104;6.022;2023-03-16T13:00:44;8.80;99.90
70726;DHT22;58304;53.104;6.022;2023-03-16T13:03:24;8.70;99.90
70726;DHT22;58304;53.104;6.022;2023-03-16T13:06:20;8.80;99.90
70726;DHT22;58304;53.104;6.022;2023-03-16T13:09:07;8.80;99.90
70726;DHT22;58304;53.104;6.022;2023-03-16T13:11:54;8.90;99.90
70726;DHT22;58304;53.104;6.022;2023-03-16T13:14:40;9.00;99.90
70726;DHT22;58304;53.104;6.022;2023-03-16T13:17:29;9.20;99.90
70726;DHT22;58304;53.104;6.022;2023-03-16T13:20:30;9.30;99.90
70726;DHT22;58304;53.104;6.022;2023-03-16T13:23:23;9.50;99.90
70726;DHT22;58304;53.104;6.022;2023-03-16T13:26:04;9.60;99.90
70726;DHT22;58304;53.104;6.022;2023-03-16T13:28:40;9.50;99.90
70726;DHT22;58304;53.104;6.022;2023-03-16T13:31:26;9.60;99.90
70726;DHT22;58304;53.104;6.022;2023-03-16T13:33:54;9.70;99.90
70726;DHT22;58304;53.104;6.022;2023-03-16T13:36:23;10.00;99.90
70726;DHT22;58304;53.104;6.022;2023-03-16T13:39:06;10.20;99.90
70726;DHT22;58304;53.104;6.022;2023-03-16T13:41:37;10.60;99.90
70726;DHT22;58304;53.104;6.022;2023-03-16T13:44:03;10.80;99.90
70726;DHT22;58304;53.104;6.022;2023-03-16T13:46:29;10.90;99.90
70726;DHT22;58304;53.104;6.022;2023-03-16T13:49:11;10.90;99.90
70726;DHT22;58304;53.104;6.022;2023-03-16T13:51:42;10.80;99.90
70726;DHT22;58304;53.104;6.022;2023-03-16T13:54:28;10.70;99.90
70726;DHT22;58304;53.104;6.022;2023-03-16T13:57:02;10.50;99.90
70726;DHT22;58304;53.104;6.022;2023-03-16T13:59:32;10.50;99.90
70726;DHT22;58304;53.104;6.022;2023-03-16T14:02:10;10.40;99.90
70726;DHT22;58304;53.104;6.022;2023-03-16T14:04:54;10.50;99.90
70726;DHT22;58304;53.104;6.022;2023-03-16T14:07:20;10.40;99.90
70726;DHT22;58304;53.104;6.022;2023-03-16T14:09:51;10.30;99.90
70726;DHT22;58304;53.104;6.022;2023-03-16T14:12:20;10.20;99.90
70726;DHT22;58304;53.104;6.022;2023-03-16T14:15:15;10.10;99.90
70726;DHT22;58304;53.104;6.022;2023-03-16T14:17:41;10.00;99.90
70726;DHT22;58304;53.104;6.022;2023-03-16T14:20:20;10.10;99.90
70726;DHT22;58304;53.104;6.022;2023-03-16T14:22:54;10.00;99.90
70726;DHT22;58304;53.104;6.022;2023-03-16T14:25:21;10.00;99.90
70726;DHT22;58304;53.104;6.022;2023-03-16T14:27:57;10.00;99.90
70726;DHT22;58304;53.104;6.022;2023-03-16T14:30:26;10.10;99.90
70726;DHT22;58304;53.104;6.022;2023-03-16T14:33:03;10.10;99.90
70726;DHT22;58304;53.104;6.022;2023-03-16T14:35:55;10.10;99.90
70726;DHT22;58304;53.104;6.022;2023-03-16T14:38:56;10.10;99.90
70726;DHT22;58304;53.104;6.022;2023-03-16T14:41:48;10.20;99.90
70726;DHT22;58304;53.104;6.022;2023-03-16T14:44:31;10.30;99.90
70726;DHT22;58304;53.104;6.022;2023-03-16T14:47:04;10.30;99.90
70726;DHT22;58304;53.104;6.022;2023-03-16T14:49:36;10.30;99.90
70726;DHT22;58304;53.104;6.022;2023-03-16T14:52:22;10.20;99.90
70726;DHT22;58304;53.104;6.022;2023-03-16T14:55:24;10.30;99.90
70726;DHT22;58304;53.104;6.022;2023-03-16T14:57:53;10.30;99.90
70726;DHT22;58304;53.104;6.022;2023-03-16T15:00:24;10.20;99.90
70726;DHT22;58304;53.104;6.022;2023-03-16T15:03:03;10.20;99.90
70726;DHT22;58304;53.104;6.022;2023-03-16T15:05:38;10.20;99.90
70726;DHT22;58304;53.104;6.022;2023-03-16T15:08:07;10.20;99.90
70726;DHT22;58304;53.104;6.022;2023-03-16T15:10:36;10.20;99.90
70726;DHT22;58304;53.104;6.022;2023-03-16T15:13:22;10.30;99.90
70726;DHT22;58304;53.104;6.022;2023-03-16T15:16:10;10.30;99.90
70726;DHT22;58304;53.104;6.022;2023-03-16T15:18:36;10.30;99.90
70726;DHT22;58304;53.104;6.022;2023-03-16T15:21:09;10.30;99.90
70726;DHT22;58304;53.104;6.022;2023-03-16T15:23:37;10.30;99.90
70726;DHT22;58304;53.104;6.022;2023-03-16T15:29:05;10.30;99.90
70726;DHT22;58304;53.104;6.022;2023-03-16T15:31:33;10.40;99.90
70726;DHT22;58304;53.104;6.022;2023-03-16T15:34:24;10.40;99.90
70726;DHT22;58304;53.104;6.022;2023-03-16T15:36:51;10.50;99.90
70726;DHT22;58304;53.104;6.022;2023-03-16T15:39:20;10.40;99.90
70726;DHT22;58304;53.104;6.022;2023-03-16T15:41:48;10.50;99.90
70726;DHT22;58304;53.104;6.022;2023-03-16T15:44:15;10.50;99.90
70726;DHT22;58304;53.104;6.022;2023-03-16T15:51:51;10.50;99.90
70726;DHT22;58304;53.104;6.022;2023-03-16T15:54:26;10.50;99.90
70726;DHT22;58304;53.104;6.022;2023-03-16T15:57:22;10.50;99.90
70726;DHT22;58304;53.104;6.022;2023-03-16T15:59:52;10.50;99.90
70726;DHT22;58304;53.104;6.022;2023-03-16T16:02:39;10.50;99.90
70726;DHT22;58304;53.104;6.022;2023-03-16T16:05:09;10.50;99.90
70726;DHT22;58304;53.104;6.022;2023-03-16T16:07:45;10.60;99.90
70726;DHT22;58304;53.104;6.022;2023-03-16T16:10:12;10.50;99.90
70726;DHT22;58304;53.104;6.022;2023-03-16T16:16:02;10.60;99.90
70726;DHT22;58304;53.104;6.022;2023-03-16T16:18:33;10.50;99.90
70726;DHT22;58304;53.104;6.022;2023-03-16T16:21:13;10.50;99.90
70726;DHT22;58304;53.104;6.022;2023-03-16T16:24:14;10.50;99.90
70726;DHT22;58304;53.104;6.022;2023-03-16T16:26:44;10.50;99.90
70726;DHT22;58304;53.104;6.022;2023-03-16T16:33:25;10.50;99.90
70726;DHT22;58304;53.104;6.022;2023-03-16T16:35:52;10.40;99.90
70726;DHT22;58304;53.104;6.022;2023-03-16T16:38:23;10.40;99.90
70726;DHT22;58304;53.104;6.022;2023-03-16T16:43:51;10.30;99.90
70726;DHT22;58304;53.104;6.022;2023-03-16T16:46:29;10.20;99.90
70726;DHT22;58304;53.104;6.022;2023-03-16T16:52:15;10.20;99.90
70726;DHT22;58304;53.104;6.022;2023-03-16T16:54:44;10.10;99.90
70726;DHT22;58304;53.104;6.022;2023-03-16T16:57:16;10.00;99.90
70726;DHT22;58304;53.104;6.022;2023-03-16T17:03:39;9.90;99.90
70726;DHT22;58304;53.104;6.022;2023-03-16T17:06:46;9.80;99.90
70726;DHT22;58304;53.104;6.022;2023-03-16T17:17:15;9.70;99.90
70726;DHT22;58304;53.104;6.022;2023-03-16T17:19:57;9.60;99.90
70726;DHT22;58304;53.104;6.022;2023-03-16T17:22:27;9.50;99.90
70726;DHT22;58304;53.104;6.022;2023-03-16T17:34:32;9.50;99.90
70726;DHT22;58304;53.104;6.022;2023-03-16T17:36:59;9.40;99.90
70726;DHT22;58304;53.104;6.022;2023-03-16T17:39:33;9.40;99.90
70726;DHT22;58304;53.104;6.022;2023-03-16T17:42:24;9.40;99.90
70726;DHT22;58304;53.104;6.022;2023-03-16T17:44:51;9.40;99.90
70726;DHT22;58304;53.104;6.022;2023-03-16T17:49:48;9.40;99.90
70726;DHT22;58304;53.104;6.022;2023-03-16T17:52:27;9.40;99.90
70726;DHT22;58304;53.104;6.022;2023-03-16T17:55:09;9.40;99.90
70726;DHT22;58304;53.104;6.022;2023-03-16T17:57:35;9.40;99.90
70726;DHT22;58304;53.104;6.022;2023-03-16T18:00:02;9.50;99.90
70726;DHT22;58304;53.104;6.022;2023-03-16T18:05:39;9.50;99.90
70726;DHT22;58304;53.104;6.022;2023-03-16T18:14:42;9.40;99.90
70726;DHT22;58304;53.104;6.022;2023-03-16T18:17:27;9.50;99.90
70726;DHT22;58304;53.104;6.022;2023-03-16T18:19:55;9.40;99.90